sensor_id;sensor_type;location;lat;lon;timestamp;P1;durP1;ratioP1;P2;durP2;ratioP2
55031;SDS011;40928;51.076;7.950;2023-02-26T00:01:17;5.83;;;1.80;;
55031;SDS011;40928;51.076;7.950;2023-02-26T00:03:48;4.07;;;1.83;;
55031;SDS011;40928;51.076;7.950;2023-02-26T00:06:15;2.60;;;1.60;;
55031;SDS011;40928;51.076;7.950;2023-02-26T00:08:40;2.70;;;1.58;;
55031;SDS011;40928;51.076;7.950;2023-02-26T00:11:06;3.83;;;1.85;;
55031;SDS011;40928;51.076;7.950;2023-02-26T00:13:34;2.97;;;1.48;;
55031;SDS011;40928;51.076;7.950;2023-02-26T00:16:00;3.90;;;1.45;;
55031;SDS011;40928;51.076;7.950;2023-02-26T00:18:26;6.78;;;1.60;;
55031;SDS011;40928;51.076;7.950;2023-02-26T00:20:53;4.47;;;1.63;;
55031;SDS011;40928;51.076;7.950;2023-02-26T00:23:19;2.10;;;1.20;;
55031;SDS011;40928;51.076;7.950;2023-02-26T00:25:45;1.83;;;0.98;;
55031;SDS011;40928;51.076;7.950;2023-02-26T00:28:11;4.68;;;1.10;;
55031;SDS011;40928;51.076;7.950;2023-02-26T00:30:37;2.90;;;1.17;;
55031;SDS011;40928;51.076;7.950;2023-02-26T00:33:03;3.60;;;0.93;;
55031;SDS011;40928;51.076;7.950;2023-02-26T00:35:29;2.60;;;1.20;;
55031;SDS011;40928;51.076;7.950;2023-02-26T00:40:28;3.25;;;0.90;;
55031;SDS011;40928;51.076;7.950;2023-02-26T00:43:05;2.38;;;1.23;;
55031;SDS011;40928;51.076;7.950;2023-02-26T00:45:33;4.20;;;1.00;;
55031;SDS011;40928;51.076;7.950;2023-02-26T00:50:59;3.17;;;1.50;;
55031;SDS011;40928;51.076;7.950;2023-02-26T00:56:50;9.52;;;0.90;;
55031;SDS011;40928;51.076;7.950;2023-02-26T00:59:17;3.50;;;1.05;;
55031;SDS011;40928;51.076;7.950;2023-02-26T01:01:44;2.28;;;1.05;;
55031;SDS011;40928;51.076;7.950;2023-02-26T01:04:12;3.17;;;1.05;;
55031;SDS011;40928;51.076;7.950;2023-02-26T01:06:42;3.85;;;1.38;;
55031;SDS011;40928;51.076;7.950;2023-02-26T01:09:26;6.60;;;1.35;;
55031;SDS011;40928;51.076;7.950;2023-02-26T01:11:59;6.38;;;1.98;;
55031;SDS011;40928;51.076;7.950;2023-02-26T01:14:27;1.90;;;1.00;;
55031;SDS011;40928;51.076;7.950;2023-02-26T01:22:47;3.55;;;1.55;;
55031;SDS011;40928;51.076;7.950;2023-02-26T01:25:17;3.85;;;1.13;;
55031;SDS011;40928;51.076;7.950;2023-02-26T01:27:59;4.85;;;1.35;;
55031;SDS011;40928;51.076;7.950;2023-02-26T01:30:25;1.33;;;1.00;;
55031;SDS011;40928;51.076;7.950;2023-02-26T01:33:01;5.95;;;2.05;;
55031;SDS011;40928;51.076;7.950;2023-02-26T01:38:38;1.42;;;1.00;;
55031;SDS011;40928;51.076;7.950;2023-02-26T01:41:18;3.33;;;1.80;;
55031;SDS011;40928;51.076;7.950;2023-02-26T01:49:03;1.60;;;1.20;;
55031;SDS011;40928;51.076;7.950;2023-02-26T01:51:40;1.98;;;1.10;;
55031;SDS011;40928;51.076;7.950;2023-02-26T01:54:06;5.25;;;1.30;;
55031;SDS011;40928;51.076;7.950;2023-02-26T01:56:31;3.63;;;1.60;;
55031;SDS011;40928;51.076;7.950;2023-02-26T01:58:58;7.18;;;1.40;;
55031;SDS011;40928;51.076;7.950;2023-02-26T02:01:25;1.83;;;1.38;;
55031;SDS011;40928;51.076;7.950;2023-02-26T02:03:51;4.43;;;1.52;;
55031;SDS011;40928;51.076;7.950;2023-02-26T02:06:19;4.07;;;1.40;;
55031;SDS011;40928;51.076;7.950;2023-02-26T02:08:47;4.30;;;1.83;;
55031;SDS011;40928;51.076;7.950;2023-02-26T02:11:12;5.65;;;1.85;;
55031;SDS011;40928;51.076;7.950;2023-02-26T02:19:25;4.72;;;1.50;;
55031;SDS011;40928;51.076;7.950;2023-02-26T02:27:34;6.07;;;2.28;;
55031;SDS011;40928;51.076;7.950;2023-02-26T02:32:48;5.47;;;2.00;;
55031;SDS011;40928;51.076;7.950;2023-02-26T02:35:21;4.60;;;2.30;;
55031;SDS011;40928;51.076;7.950;2023-02-26T02:40:35;9.75;;;1.77;;
55031;SDS011;40928;51.076;7.950;2023-02-26T02:43:09;5.47;;;2.10;;
55031;SDS011;40928;51.076;7.950;2023-02-26T02:48:52;4.30;;;1.77;;
55031;SDS011;40928;51.076;7.950;2023-02-26T02:51:24;4.38;;;1.80;;
55031;SDS011;40928;51.076;7.950;2023-02-26T02:53:58;3.03;;;1.92;;
55031;SDS011;40928;51.076;7.950;2023-02-26T02:56:33;2.50;;;1.60;;
55031;SDS011;40928;51.076;7.950;2023-02-26T02:59:09;5.57;;;1.95;;
55031;SDS011;40928;51.076;7.950;2023-02-26T03:04:30;5.50;;;1.88;;
55031;SDS011;40928;51.076;7.950;2023-02-26T03:06:55;4.18;;;1.77;;
55031;SDS011;40928;51.076;7.950;2023-02-26T03:09:21;2.33;;;1.40;;
55031;SDS011;40928;51.076;7.950;2023-02-26T03:11:46;4.18;;;1.83;;
55031;SDS011;40928;51.076;7.950;2023-02-26T03:14:12;3.80;;;1.92;;
55031;SDS011;40928;51.076;7.950;2023-02-26T03:22:10;2.47;;;1.52;;
55031;SDS011;40928;51.076;7.950;2023-02-26T03:32:56;3.25;;;1.88;;
55031;SDS011;40928;51.076;7.950;2023-02-26T03:35:40;4.57;;;1.98;;
55031;SDS011;40928;51.076;7.950;2023-02-26T03:38:11;3.85;;;2.00;;
55031;SDS011;40928;51.076;7.950;2023-02-26T03:40:49;5.88;;;2.03;;
55031;SDS011;40928;51.076;7.950;2023-02-26T03:43:24;5.25;;;1.75;;
55031;SDS011;40928;51.076;7.950;2023-02-26T03:45:57;3.00;;;2.10;;
55031;SDS011;40928;51.076;7.950;2023-02-26T03:48:27;4.93;;;2.33;;
55031;SDS011;40928;51.076;7.950;2023-02-26T03:50:57;4.65;;;2.22;;
55031;SDS011;40928;51.076;7.950;2023-02-26T03:54:03;6.05;;;2.05;;
55031;SDS011;40928;51.076;7.950;2023-02-26T03:56:41;2.55;;;1.73;;
55031;SDS011;40928;51.076;7.950;2023-02-26T03:59:38;3.38;;;2.05;;
55031;SDS011;40928;51.076;7.950;2023-02-26T04:02:23;3.47;;;1.88;;
55031;SDS011;40928;51.076;7.950;2023-02-26T04:05:05;5.47;;;1.85;;
55031;SDS011;40928;51.076;7.950;2023-02-26T04:10:03;2.65;;;1.63;;
55031;SDS011;40928;51.076;7.950;2023-02-26T04:12:30;3.58;;;2.00;;
55031;SDS011;40928;51.076;7.950;2023-02-26T04:14:56;4.20;;;2.03;;
55031;SDS011;40928;51.076;7.950;2023-02-26T04:17:23;4.18;;;2.40;;
55031;SDS011;40928;51.076;7.950;2023-02-26T04:19:49;2.90;;;1.90;;
55031;SDS011;40928;51.076;7.950;2023-02-26T04:22:16;3.33;;;1.95;;
55031;SDS011;40928;51.076;7.950;2023-02-26T04:24:42;6.63;;;1.90;;
55031;SDS011;40928;51.076;7.950;2023-02-26T04:27:07;7.63;;;2.08;;
55031;SDS011;40928;51.076;7.950;2023-02-26T04:29:33;5.18;;;2.40;;
55031;SDS011;40928;51.076;7.950;2023-02-26T04:32:00;6.00;;;1.70;;
55031;SDS011;40928;51.076;7.950;2023-02-26T04:34:26;3.38;;;1.95;;
55031;SDS011;40928;51.076;7.950;2023-02-26T04:36:52;4.95;;;2.33;;
55031;SDS011;40928;51.076;7.950;2023-02-26T04:39:18;2.75;;;1.83;;
55031;SDS011;40928;51.076;7.950;2023-02-26T04:41:44;3.42;;;1.73;;
55031;SDS011;40928;51.076;7.950;2023-02-26T04:44:09;3.50;;;1.77;;
55031;SDS011;40928;51.076;7.950;2023-02-26T04:46:38;4.05;;;2.00;;
55031;SDS011;40928;51.076;7.950;2023-02-26T04:49:04;8.20;;;1.70;;
55031;SDS011;40928;51.076;7.950;2023-02-26T04:51:29;4.15;;;1.48;;
55031;SDS011;40928;51.076;7.950;2023-02-26T04:53:55;3.15;;;1.80;;
55031;SDS011;40928;51.076;7.950;2023-02-26T04:56:21;4.20;;;1.38;;
55031;SDS011;40928;51.076;7.950;2023-02-26T04:58:47;1.92;;;1.48;;
55031;SDS011;40928;51.076;7.950;2023-02-26T05:01:17;5.72;;;2.30;;
55031;SDS011;40928;51.076;7.950;2023-02-26T05:03:43;5.07;;;1.52;;
55031;SDS011;40928;51.076;7.950;2023-02-26T05:06:08;4.22;;;1.80;;
55031;SDS011;40928;51.076;7.950;2023-02-26T05:08:35;2.80;;;1.60;;
55031;SDS011;40928;51.076;7.950;2023-02-26T05:11:00;4.85;;;1.63;;
55031;SDS011;40928;51.076;7.950;2023-02-26T05:13:26;3.72;;;1.90;;
55031;SDS011;40928;51.076;7.950;2023-02-26T05:15:52;3.08;;;1.52;;
55031;SDS011;40928;51.076;7.950;2023-02-26T05:18:18;7.32;;;1.77;;
55031;SDS011;40928;51.076;7.950;2023-02-26T05:20:45;2.75;;;1.20;;
55031;SDS011;40928;51.076;7.950;2023-02-26T05:23:17;5.50;;;1.25;;
55031;SDS011;40928;51.076;7.950;2023-02-26T05:25:42;1.85;;;1.48;;
55031;SDS011;40928;51.076;7.950;2023-02-26T05:28:08;4.47;;;1.15;;
55031;SDS011;40928;51.076;7.950;2023-02-26T05:30:33;12.02;;;2.15;;
55031;SDS011;40928;51.076;7.950;2023-02-26T05:32:59;2.30;;;1.50;;
55031;SDS011;40928;51.076;7.950;2023-02-26T05:35:24;3.95;;;2.15;;
55031;SDS011;40928;51.076;7.950;2023-02-26T05:37:50;5.18;;;1.80;;
55031;SDS011;40928;51.076;7.950;2023-02-26T05:40:15;5.25;;;1.73;;
55031;SDS011;40928;51.076;7.950;2023-02-26T05:42:41;4.57;;;1.58;;
55031;SDS011;40928;51.076;7.950;2023-02-26T05:45:07;2.72;;;1.30;;
55031;SDS011;40928;51.076;7.950;2023-02-26T05:47:34;12.95;;;1.85;;
55031;SDS011;40928;51.076;7.950;2023-02-26T05:50:00;7.57;;;1.48;;
55031;SDS011;40928;51.076;7.950;2023-02-26T05:52:26;2.05;;;1.30;;
55031;SDS011;40928;51.076;7.950;2023-02-26T05:54:52;2.15;;;1.40;;
55031;SDS011;40928;51.076;7.950;2023-02-26T05:57:17;2.72;;;1.67;;
55031;SDS011;40928;51.076;7.950;2023-02-26T05:59:44;2.70;;;1.67;;
55031;SDS011;40928;51.076;7.950;2023-02-26T06:02:09;8.00;;;1.77;;
55031;SDS011;40928;51.076;7.950;2023-02-26T06:04:35;4.70;;;1.45;;
55031;SDS011;40928;51.076;7.950;2023-02-26T06:07:00;2.97;;;1.42;;
55031;SDS011;40928;51.076;7.950;2023-02-26T06:09:26;2.80;;;1.15;;
55031;SDS011;40928;51.076;7.950;2023-02-26T06:11:52;3.58;;;1.90;;
55031;SDS011;40928;51.076;7.950;2023-02-26T06:14:17;3.20;;;1.63;;
55031;SDS011;40928;51.076;7.950;2023-02-26T06:16:43;3.10;;;1.63;;
55031;SDS011;40928;51.076;7.950;2023-02-26T06:19:08;3.67;;;1.45;;
55031;SDS011;40928;51.076;7.950;2023-02-26T06:21:34;4.85;;;1.70;;
55031;SDS011;40928;51.076;7.950;2023-02-26T06:23:59;4.10;;;1.85;;
55031;SDS011;40928;51.076;7.950;2023-02-26T06:26:25;4.63;;;1.45;;
55031;SDS011;40928;51.076;7.950;2023-02-26T06:28:50;3.92;;;1.75;;
55031;SDS011;40928;51.076;7.950;2023-02-26T06:31:16;3.38;;;1.65;;
55031;SDS011;40928;51.076;7.950;2023-02-26T06:33:41;3.05;;;1.73;;
55031;SDS011;40928;51.076;7.950;2023-02-26T06:36:07;3.08;;;1.75;;
55031;SDS011;40928;51.076;7.950;2023-02-26T06:38:32;4.85;;;1.50;;
55031;SDS011;40928;51.076;7.950;2023-02-26T06:40:58;2.45;;;1.40;;
55031;SDS011;40928;51.076;7.950;2023-02-26T06:43:23;4.93;;;2.15;;
55031;SDS011;40928;51.076;7.950;2023-02-26T06:45:49;3.75;;;1.95;;
55031;SDS011;40928;51.076;7.950;2023-02-26T06:48:15;4.43;;;1.85;;
55031;SDS011;40928;51.076;7.950;2023-02-26T06:50:41;5.90;;;2.03;;
55031;SDS011;40928;51.076;7.950;2023-02-26T06:53:06;3.13;;;1.45;;
55031;SDS011;40928;51.076;7.950;2023-02-26T06:55:32;3.38;;;2.03;;
55031;SDS011;40928;51.076;7.950;2023-02-26T06:57:58;2.70;;;1.73;;
55031;SDS011;40928;51.076;7.950;2023-02-26T07:00:24;3.60;;;1.75;;
55031;SDS011;40928;51.076;7.950;2023-02-26T07:02:50;2.95;;;1.95;;
55031;SDS011;40928;51.076;7.950;2023-02-26T07:05:17;3.25;;;1.80;;
55031;SDS011;40928;51.076;7.950;2023-02-26T07:07:42;3.88;;;2.17;;
55031;SDS011;40928;51.076;7.950;2023-02-26T07:10:09;3.22;;;2.13;;
55031;SDS011;40928;51.076;7.950;2023-02-26T07:12:35;3.58;;;1.80;;
55031;SDS011;40928;51.076;7.950;2023-02-26T07:15:03;1.88;;;1.25;;
55031;SDS011;40928;51.076;7.950;2023-02-26T07:17:30;2.50;;;1.50;;
55031;SDS011;40928;51.076;7.950;2023-02-26T07:19:56;3.10;;;1.70;;
55031;SDS011;40928;51.076;7.950;2023-02-26T07:22:21;4.53;;;1.52;;
55031;SDS011;40928;51.076;7.950;2023-02-26T07:24:47;6.40;;;2.15;;
55031;SDS011;40928;51.076;7.950;2023-02-26T07:27:13;2.45;;;1.50;;
55031;SDS011;40928;51.076;7.950;2023-02-26T07:29:39;5.38;;;1.63;;
55031;SDS011;40928;51.076;7.950;2023-02-26T07:32:05;4.28;;;1.55;;
55031;SDS011;40928;51.076;7.950;2023-02-26T07:34:30;8.75;;;2.08;;
55031;SDS011;40928;51.076;7.950;2023-02-26T07:36:56;2.10;;;1.42;;
55031;SDS011;40928;51.076;7.950;2023-02-26T07:39:23;6.90;;;2.28;;
55031;SDS011;40928;51.076;7.950;2023-02-26T07:41:49;3.25;;;2.00;;
55031;SDS011;40928;51.076;7.950;2023-02-26T07:44:15;3.30;;;2.15;;
55031;SDS011;40928;51.076;7.950;2023-02-26T07:46:40;1.90;;;1.25;;
55031;SDS011;40928;51.076;7.950;2023-02-26T07:49:06;3.20;;;1.60;;
55031;SDS011;40928;51.076;7.950;2023-02-26T07:51:32;2.70;;;1.83;;
55031;SDS011;40928;51.076;7.950;2023-02-26T07:53:58;1.95;;;1.38;;
55031;SDS011;40928;51.076;7.950;2023-02-26T07:56:24;4.25;;;1.85;;
55031;SDS011;40928;51.076;7.950;2023-02-26T07:58:52;4.68;;;1.67;;
55031;SDS011;40928;51.076;7.950;2023-02-26T08:01:17;2.60;;;1.73;;
55031;SDS011;40928;51.076;7.950;2023-02-26T08:03:43;6.60;;;1.98;;
55031;SDS011;40928;51.076;7.950;2023-02-26T08:06:09;4.20;;;2.00;;
55031;SDS011;40928;51.076;7.950;2023-02-26T08:08:35;3.45;;;1.80;;
55031;SDS011;40928;51.076;7.950;2023-02-26T08:11:00;2.78;;;1.60;;
55031;SDS011;40928;51.076;7.950;2023-02-26T08:13:26;7.95;;;2.10;;
55031;SDS011;40928;51.076;7.950;2023-02-26T08:15:52;8.15;;;2.30;;
55031;SDS011;40928;51.076;7.950;2023-02-26T08:18:18;4.03;;;1.90;;
55031;SDS011;40928;51.076;7.950;2023-02-26T08:20:43;7.22;;;3.63;;
55031;SDS011;40928;51.076;7.950;2023-02-26T08:23:09;10.02;;;2.88;;
55031;SDS011;40928;51.076;7.950;2023-02-26T08:25:35;4.28;;;1.48;;
55031;SDS011;40928;51.076;7.950;2023-02-26T08:28:00;4.15;;;1.75;;
55031;SDS011;40928;51.076;7.950;2023-02-26T08:30:27;2.63;;;1.52;;
55031;SDS011;40928;51.076;7.950;2023-02-26T08:32:56;3.45;;;1.33;;
55031;SDS011;40928;51.076;7.950;2023-02-26T08:35:21;2.17;;;1.50;;
55031;SDS011;40928;51.076;7.950;2023-02-26T08:37:47;6.45;;;1.50;;
55031;SDS011;40928;51.076;7.950;2023-02-26T08:40:14;4.10;;;1.52;;
55031;SDS011;40928;51.076;7.950;2023-02-26T08:42:40;3.75;;;1.40;;
55031;SDS011;40928;51.076;7.950;2023-02-26T08:45:06;4.47;;;1.15;;
55031;SDS011;40928;51.076;7.950;2023-02-26T08:47:35;4.30;;;1.27;;
55031;SDS011;40928;51.076;7.950;2023-02-26T08:50:09;3.22;;;1.83;;
55031;SDS011;40928;51.076;7.950;2023-02-26T08:52:36;4.47;;;1.50;;
55031;SDS011;40928;51.076;7.950;2023-02-26T08:55:03;2.88;;;1.25;;
55031;SDS011;40928;51.076;7.950;2023-02-26T08:57:28;4.20;;;1.67;;
55031;SDS011;40928;51.076;7.950;2023-02-26T08:59:54;3.47;;;1.45;;
55031;SDS011;40928;51.076;7.950;2023-02-26T09:02:19;4.22;;;2.13;;
55031;SDS011;40928;51.076;7.950;2023-02-26T09:04:46;10.05;;;1.20;;
55031;SDS011;40928;51.076;7.950;2023-02-26T09:07:12;5.60;;;1.70;;
55031;SDS011;40928;51.076;7.950;2023-02-26T09:09:37;3.45;;;1.58;;
55031;SDS011;40928;51.076;7.950;2023-02-26T09:12:03;3.03;;;0.82;;
55031;SDS011;40928;51.076;7.950;2023-02-26T09:14:43;2.78;;;1.55;;
55031;SDS011;40928;51.076;7.950;2023-02-26T09:17:09;4.38;;;1.50;;
55031;SDS011;40928;51.076;7.950;2023-02-26T09:19:43;1.92;;;1.17;;
55031;SDS011;40928;51.076;7.950;2023-02-26T09:22:09;8.50;;;2.40;;
55031;SDS011;40928;51.076;7.950;2023-02-26T09:24:35;6.82;;;1.50;;
55031;SDS011;40928;51.076;7.950;2023-02-26T09:27:02;1.65;;;0.80;;
55031;SDS011;40928;51.076;7.950;2023-02-26T09:29:28;4.28;;;1.38;;
55031;SDS011;40928;51.076;7.950;2023-02-26T09:31:54;3.78;;;1.35;;
55031;SDS011;40928;51.076;7.950;2023-02-26T09:34:22;3.00;;;1.33;;
55031;SDS011;40928;51.076;7.950;2023-02-26T09:36:56;3.30;;;1.33;;
55031;SDS011;40928;51.076;7.950;2023-02-26T09:39:27;3.20;;;0.80;;
55031;SDS011;40928;51.076;7.950;2023-02-26T09:41:56;2.15;;;1.27;;
55031;SDS011;40928;51.076;7.950;2023-02-26T09:44:31;2.15;;;1.02;;
55031;SDS011;40928;51.076;7.950;2023-02-26T09:47:12;2.88;;;1.35;;
55031;SDS011;40928;51.076;7.950;2023-02-26T09:53:40;2.95;;;1.15;;
55031;SDS011;40928;51.076;7.950;2023-02-26T09:56:16;2.17;;;1.20;;
55031;SDS011;40928;51.076;7.950;2023-02-26T09:58:49;3.80;;;0.80;;
55031;SDS011;40928;51.076;7.950;2023-02-26T10:06:52;2.30;;;0.63;;
55031;SDS011;40928;51.076;7.950;2023-02-26T10:09:59;6.03;;;1.20;;
55031;SDS011;40928;51.076;7.950;2023-02-26T10:12:55;1.05;;;0.73;;
55031;SDS011;40928;51.076;7.950;2023-02-26T10:15:38;1.10;;;0.73;;
55031;SDS011;40928;51.076;7.950;2023-02-26T10:18:13;5.07;;;1.20;;
55031;SDS011;40928;51.076;7.950;2023-02-26T10:23:37;2.45;;;0.90;;
55031;SDS011;40928;51.076;7.950;2023-02-26T10:34:07;2.28;;;0.57;;
55031;SDS011;40928;51.076;7.950;2023-02-26T10:39:43;1.27;;;0.52;;
55031;SDS011;40928;51.076;7.950;2023-02-26T10:42:32;0.77;;;0.60;;
55031;SDS011;40928;51.076;7.950;2023-02-26T10:50:32;5.80;;;1.20;;
55031;SDS011;40928;51.076;7.950;2023-02-26T10:52:57;0.88;;;0.43;;
55031;SDS011;40928;51.076;7.950;2023-02-26T10:55:29;1.75;;;0.52;;
55031;SDS011;40928;51.076;7.950;2023-02-26T10:58:13;0.95;;;0.30;;
55031;SDS011;40928;51.076;7.950;2023-02-26T11:00:46;1.30;;;0.57;;
55031;SDS011;40928;51.076;7.950;2023-02-26T11:03:15;3.70;;;0.57;;
55031;SDS011;40928;51.076;7.950;2023-02-26T11:05:44;1.67;;;0.60;;
55031;SDS011;40928;51.076;7.950;2023-02-26T11:08:18;0.93;;;0.30;;
55031;SDS011;40928;51.076;7.950;2023-02-26T11:10:50;5.72;;;0.60;;
55031;SDS011;40928;51.076;7.950;2023-02-26T11:13:21;1.48;;;0.50;;
55031;SDS011;40928;51.076;7.950;2023-02-26T11:15:50;1.80;;;0.50;;
55031;SDS011;40928;51.076;7.950;2023-02-26T11:18:35;2.70;;;0.55;;
55031;SDS011;40928;51.076;7.950;2023-02-26T11:21:06;1.05;;;0.40;;
55031;SDS011;40928;51.076;7.950;2023-02-26T11:23:32;1.70;;;0.32;;
55031;SDS011;40928;51.076;7.950;2023-02-26T11:26:02;1.38;;;0.65;;
55031;SDS011;40928;51.076;7.950;2023-02-26T11:28:42;3.10;;;1.17;;
55031;SDS011;40928;51.076;7.950;2023-02-26T11:31:10;2.75;;;0.90;;
55031;SDS011;40928;51.076;7.950;2023-02-26T11:33:43;2.33;;;0.90;;
55031;SDS011;40928;51.076;7.950;2023-02-26T11:36:23;2.53;;;0.77;;
55031;SDS011;40928;51.076;7.950;2023-02-26T11:38:54;1.85;;;0.60;;
55031;SDS011;40928;51.076;7.950;2023-02-26T11:41:22;3.95;;;0.70;;
55031;SDS011;40928;51.076;7.950;2023-02-26T11:44:04;4.15;;;0.70;;
55031;SDS011;40928;51.076;7.950;2023-02-26T11:46:56;2.63;;;0.60;;
55031;SDS011;40928;51.076;7.950;2023-02-26T11:49:27;1.35;;;0.60;;
55031;SDS011;40928;51.076;7.950;2023-02-26T11:52:20;2.45;;;0.82;;
55031;SDS011;40928;51.076;7.950;2023-02-26T11:54:58;3.00;;;0.52;;
55031;SDS011;40928;51.076;7.950;2023-02-26T11:57:27;1.50;;;0.47;;
55031;SDS011;40928;51.076;7.950;2023-02-26T11:59:54;1.83;;;0.68;;
55031;SDS011;40928;51.076;7.950;2023-02-26T12:02:24;5.80;;;0.73;;
55031;SDS011;40928;51.076;7.950;2023-02-26T12:04:52;2.30;;;0.93;;
55031;SDS011;40928;51.076;7.950;2023-02-26T12:07:23;1.90;;;0.70;;
55031;SDS011;40928;51.076;7.950;2023-02-26T12:09:48;2.22;;;0.77;;
55031;SDS011;40928;51.076;7.950;2023-02-26T12:12:30;3.10;;;1.85;;
55031;SDS011;40928;51.076;7.950;2023-02-26T12:18:35;1.33;;;0.70;;
55031;SDS011;40928;51.076;7.950;2023-02-26T12:34:25;1.30;;;0.60;;
55031;SDS011;40928;51.076;7.950;2023-02-26T12:37:26;7.10;;;1.52;;
55031;SDS011;40928;51.076;7.950;2023-02-26T12:43:01;4.55;;;1.30;;
55031;SDS011;40928;51.076;7.950;2023-02-26T13:20:37;4.53;;;0.77;;
55031;SDS011;40928;51.076;7.950;2023-02-26T13:23:13;1.77;;;0.50;;
55031;SDS011;40928;51.076;7.950;2023-02-26T13:25:54;1.80;;;0.65;;
55031;SDS011;40928;51.076;7.950;2023-02-26T13:30:59;0.50;;;0.30;;
55031;SDS011;40928;51.076;7.950;2023-02-26T13:33:26;0.85;;;0.30;;
55031;SDS011;40928;51.076;7.950;2023-02-26T13:35:55;0.50;;;0.30;;
55031;SDS011;40928;51.076;7.950;2023-02-26T13:41:38;1.70;;;0.82;;
55031;SDS011;40928;51.076;7.950;2023-02-26T13:58:37;2.22;;;0.52;;
55031;SDS011;40928;51.076;7.950;2023-02-26T14:01:19;4.93;;;1.67;;
55031;SDS011;40928;51.076;7.950;2023-02-26T14:06:36;1.88;;;0.63;;
55031;SDS011;40928;51.076;7.950;2023-02-26T14:09:45;1.38;;;0.60;;
55031;SDS011;40928;51.076;7.950;2023-02-26T14:12:30;2.67;;;0.55;;
55031;SDS011;40928;51.076;7.950;2023-02-26T14:15:28;1.25;;;0.20;;
55031;SDS011;40928;51.076;7.950;2023-02-26T14:18:10;2.08;;;0.40;;
55031;SDS011;40928;51.076;7.950;2023-02-26T14:20:44;5.15;;;0.60;;
55031;SDS011;40928;51.076;7.950;2023-02-26T14:23:20;1.33;;;0.50;;
55031;SDS011;40928;51.076;7.950;2023-02-26T14:26:04;2.70;;;0.70;;
55031;SDS011;40928;51.076;7.950;2023-02-26T14:28:44;2.30;;;0.40;;
55031;SDS011;40928;51.076;7.950;2023-02-26T14:31:20;0.82;;;0.40;;
55031;SDS011;40928;51.076;7.950;2023-02-26T14:36:48;1.27;;;0.40;;
55031;SDS011;40928;51.076;7.950;2023-02-26T14:39:26;2.50;;;1.10;;
55031;SDS011;40928;51.076;7.950;2023-02-26T14:42:03;1.30;;;0.50;;
55031;SDS011;40928;51.076;7.950;2023-02-26T14:44:34;1.92;;;0.68;;
55031;SDS011;40928;51.076;7.950;2023-02-26T14:47:12;0.70;;;0.38;;
55031;SDS011;40928;51.076;7.950;2023-02-26T14:49:39;1.05;;;0.47;;
55031;SDS011;40928;51.076;7.950;2023-02-26T15:03:25;1.55;;;0.38;;
55031;SDS011;40928;51.076;7.950;2023-02-26T15:09:11;1.27;;;0.52;;
55031;SDS011;40928;51.076;7.950;2023-02-26T15:14:56;1.23;;;0.43;;
55031;SDS011;40928;51.076;7.950;2023-02-26T15:17:42;4.47;;;0.82;;
55031;SDS011;40928;51.076;7.950;2023-02-26T15:25:52;2.13;;;0.77;;
55031;SDS011;40928;51.076;7.950;2023-02-26T15:30:50;1.60;;;0.60;;
55031;SDS011;40928;51.076;7.950;2023-02-26T15:33:18;2.85;;;0.80;;
55031;SDS011;40928;51.076;7.950;2023-02-26T15:35:48;0.80;;;0.30;;
55031;SDS011;40928;51.076;7.950;2023-02-26T15:38:21;1.05;;;0.40;;
55031;SDS011;40928;51.076;7.950;2023-02-26T15:40:48;3.90;;;0.30;;
55031;SDS011;40928;51.076;7.950;2023-02-26T15:43:20;0.80;;;0.38;;
55031;SDS011;40928;51.076;7.950;2023-02-26T15:45:55;0.88;;;0.57;;
55031;SDS011;40928;51.076;7.950;2023-02-26T15:51:12;1.23;;;0.40;;
55031;SDS011;40928;51.076;7.950;2023-02-26T15:53:48;0.73;;;0.50;;
55031;SDS011;40928;51.076;7.950;2023-02-26T15:56:21;2.22;;;0.60;;
55031;SDS011;40928;51.076;7.950;2023-02-26T15:58:57;1.35;;;0.60;;
55031;SDS011;40928;51.076;7.950;2023-02-26T16:01:26;1.95;;;0.77;;
55031;SDS011;40928;51.076;7.950;2023-02-26T16:04:01;2.85;;;0.68;;
55031;SDS011;40928;51.076;7.950;2023-02-26T16:06:39;3.15;;;0.85;;
55031;SDS011;40928;51.076;7.950;2023-02-26T16:09:08;3.83;;;0.70;;
55031;SDS011;40928;51.076;7.950;2023-02-26T16:11:41;0.70;;;0.50;;
55031;SDS011;40928;51.076;7.950;2023-02-26T16:14:21;2.38;;;0.52;;
55031;SDS011;40928;51.076;7.950;2023-02-26T16:17:03;1.45;;;0.70;;
55031;SDS011;40928;51.076;7.950;2023-02-26T16:19:40;2.50;;;0.65;;
55031;SDS011;40928;51.076;7.950;2023-02-26T16:22:20;2.17;;;0.88;;
55031;SDS011;40928;51.076;7.950;2023-02-26T16:27:41;1.38;;;0.60;;
55031;SDS011;40928;51.076;7.950;2023-02-26T16:30:17;2.47;;;0.90;;
55031;SDS011;40928;51.076;7.950;2023-02-26T16:33:04;2.50;;;0.93;;
55031;SDS011;40928;51.076;7.950;2023-02-26T16:35:41;0.77;;;0.40;;
55031;SDS011;40928;51.076;7.950;2023-02-26T16:38:22;4.00;;;0.60;;
55031;SDS011;40928;51.076;7.950;2023-02-26T16:41:08;1.60;;;0.70;;
55031;SDS011;40928;51.076;7.950;2023-02-26T16:46:19;1.70;;;0.70;;
55031;SDS011;40928;51.076;7.950;2023-02-26T16:51:52;2.10;;;0.75;;
55031;SDS011;40928;51.076;7.950;2023-02-26T16:54:24;2.60;;;0.40;;
55031;SDS011;40928;51.076;7.950;2023-02-26T16:56:57;0.77;;;0.35;;
55031;SDS011;40928;51.076;7.950;2023-02-26T16:59:36;0.52;;;0.30;;
55031;SDS011;40928;51.076;7.950;2023-02-26T17:02:12;4.65;;;0.52;;
55031;SDS011;40928;51.076;7.950;2023-02-26T17:05:00;4.45;;;0.70;;
55031;SDS011;40928;51.076;7.950;2023-02-26T17:07:45;2.35;;;0.77;;
55031;SDS011;40928;51.076;7.950;2023-02-26T17:10:31;8.43;;;1.17;;
55031;SDS011;40928;51.076;7.950;2023-02-26T17:16:05;2.25;;;1.23;;
55031;SDS011;40928;51.076;7.950;2023-02-26T17:18:34;5.03;;;0.80;;
55031;SDS011;40928;51.076;7.950;2023-02-26T17:21:01;5.47;;;0.75;;
55031;SDS011;40928;51.076;7.950;2023-02-26T17:23:39;2.20;;;0.73;;
55031;SDS011;40928;51.076;7.950;2023-02-26T17:26:08;2.72;;;0.82;;
55031;SDS011;40928;51.076;7.950;2023-02-26T17:28:39;1.65;;;0.60;;
55031;SDS011;40928;51.076;7.950;2023-02-26T17:31:07;0.77;;;0.52;;
55031;SDS011;40928;51.076;7.950;2023-02-26T17:33:33;4.63;;;0.93;;
55031;SDS011;40928;51.076;7.950;2023-02-26T17:36:01;1.85;;;0.80;;
55031;SDS011;40928;51.076;7.950;2023-02-26T17:38:31;3.00;;;0.70;;
55031;SDS011;40928;51.076;7.950;2023-02-26T17:40:57;1.30;;;0.60;;
55031;SDS011;40928;51.076;7.950;2023-02-26T17:43:24;4.95;;;0.68;;
55031;SDS011;40928;51.076;7.950;2023-02-26T17:45:51;4.65;;;1.00;;
55031;SDS011;40928;51.076;7.950;2023-02-26T17:48:17;0.98;;;0.57;;
55031;SDS011;40928;51.076;7.950;2023-02-26T17:50:50;3.28;;;0.77;;
55031;SDS011;40928;51.076;7.950;2023-02-26T17:53:20;1.60;;;0.70;;
55031;SDS011;40928;51.076;7.950;2023-02-26T17:55:48;1.88;;;1.08;;
55031;SDS011;40928;51.076;7.950;2023-02-26T17:58:21;1.65;;;1.00;;
55031;SDS011;40928;51.076;7.950;2023-02-26T18:00:49;1.70;;;0.73;;
55031;SDS011;40928;51.076;7.950;2023-02-26T18:03:17;1.80;;;0.68;;
55031;SDS011;40928;51.076;7.950;2023-02-26T18:05:44;1.70;;;0.80;;
55031;SDS011;40928;51.076;7.950;2023-02-26T18:08:20;2.50;;;0.60;;
55031;SDS011;40928;51.076;7.950;2023-02-26T18:10:47;1.30;;;0.73;;
55031;SDS011;40928;51.076;7.950;2023-02-26T18:13:16;1.52;;;0.95;;
55031;SDS011;40928;51.076;7.950;2023-02-26T18:15:48;4.38;;;0.73;;
55031;SDS011;40928;51.076;7.950;2023-02-26T18:18:17;3.03;;;0.93;;
55031;SDS011;40928;51.076;7.950;2023-02-26T18:20:45;3.40;;;1.27;;
55031;SDS011;40928;51.076;7.950;2023-02-26T18:23:11;2.40;;;1.05;;
55031;SDS011;40928;51.076;7.950;2023-02-26T18:25:38;2.42;;;1.08;;
55031;SDS011;40928;51.076;7.950;2023-02-26T18:28:05;2.42;;;0.70;;
55031;SDS011;40928;51.076;7.950;2023-02-26T18:30:35;1.83;;;0.68;;
55031;SDS011;40928;51.076;7.950;2023-02-26T18:33:04;1.13;;;0.70;;
55031;SDS011;40928;51.076;7.950;2023-02-26T18:35:30;1.42;;;0.75;;
55031;SDS011;40928;51.076;7.950;2023-02-26T18:37:57;2.25;;;0.60;;
55031;SDS011;40928;51.076;7.950;2023-02-26T18:40:23;1.30;;;0.70;;